createdAt,value
2019-04-18T00:00:49.333Z,8.67
2019-04-18T00:03:31.866Z,7.80
2019-04-18T00:06:07.854Z,9.27
2019-04-18T00:08:36.454Z,7.17
2019-04-18T00:11:05.599Z,11.03
2019-04-18T00:13:34.193Z,9.93
2019-04-18T00:16:02.851Z,7.90
2019-04-18T00:18:31.467Z,7.40
2019-04-18T00:21:00.013Z,11.40
2019-04-18T00:23:29.275Z,9.70
2019-04-18T00:25:59.152Z,5.30
2019-04-18T00:28:27.726Z,7.50
2019-04-18T00:30:59.695Z,6.17
2019-04-18T00:33:26.854Z,10.80
2019-04-18T00:35:55.792Z,6.73
2019-04-18T00:38:26.833Z,10.90
2019-04-18T00:40:55.389Z,9.97
2019-04-18T00:43:27.056Z,11.50
2019-04-18T00:45:54.227Z,12.70
2019-04-18T00:48:25.680Z,8.47
2019-04-18T00:50:53.211Z,9.73
2019-04-18T00:53:22.553Z,10.50
2019-04-18T00:55:51.119Z,10.90
2019-04-18T00:58:22.560Z,12.20
2019-04-18T01:00:52.799Z,8.60
2019-04-18T01:03:24.652Z,12.90
2019-04-18T01:05:53.189Z,13.43
2019-04-18T01:08:21.769Z,9.00
2019-04-18T01:10:51.981Z,15.00
2019-04-18T01:13:20.626Z,9.10
2019-04-18T01:15:49.254Z,8.97
2019-04-18T01:18:17.855Z,9.83
2019-04-18T01:20:46.690Z,12.33
2019-04-18T01:23:18.176Z,12.57
2019-04-18T01:25:45.846Z,9.50
2019-04-18T01:28:14.478Z,13.53
2019-04-18T01:30:43.096Z,14.33
2019-04-18T01:33:11.840Z,9.70
2019-04-18T01:35:40.783Z,12.80
2019-04-18T01:38:11.268Z,11.50
2019-04-18T01:40:40.162Z,11.37
2019-04-18T01:43:10.405Z,9.40
2019-04-18T01:45:56.853Z,11.03
2019-04-18T01:48:26.896Z,10.00
2019-04-18T01:50:55.619Z,11.07
2019-04-18T01:53:25.005Z,8.90
2019-04-18T01:55:53.621Z,16.77
2019-04-18T01:58:25.066Z,9.30
2019-04-18T02:00:53.694Z,11.07
2019-04-18T02:03:25.236Z,10.70
2019-04-18T02:05:53.891Z,10.10
2019-04-18T02:08:22.511Z,10.17
2019-04-18T02:10:51.117Z,14.97
2019-04-18T02:13:21.787Z,13.30
2019-04-18T02:15:52.145Z,12.50
2019-04-18T02:18:21.828Z,8.03
2019-04-18T02:20:51.001Z,9.13
2019-04-18T02:23:21.980Z,11.73
2019-04-18T02:25:50.374Z,13.23
2019-04-18T02:28:18.982Z,10.07
2019-04-18T02:30:47.625Z,14.43
2019-04-18T02:33:16.330Z,8.40
2019-04-18T02:35:44.865Z,16.03
2019-04-18T02:38:15.955Z,11.03
2019-04-18T02:40:43.827Z,11.47
2019-04-18T02:43:12.400Z,12.13
2019-04-18T02:45:41.066Z,21.87
2019-04-18T02:48:09.773Z,13.87
2019-04-18T02:50:42.197Z,11.43
2019-04-18T02:53:09.968Z,14.17
2019-04-18T02:55:52.305Z,15.40
2019-04-18T02:58:28.808Z,15.47
2019-04-18T03:01:02.018Z,14.77
2019-04-18T03:03:44.426Z,14.40
2019-04-18T03:06:13.477Z,15.47
2019-04-18T03:08:41.905Z,9.83
2019-04-18T03:11:10.473Z,13.23
2019-04-18T03:13:39.141Z,11.90
2019-04-18T03:16:09.465Z,18.50
2019-04-18T03:18:38.088Z,14.00
2019-04-18T03:21:06.812Z,8.03
2019-04-18T03:23:39.257Z,17.23
2019-04-18T03:26:05.783Z,23.93
2019-04-18T03:28:34.406Z,12.37
2019-04-18T03:31:11.969Z,10.53
2019-04-18T03:33:33.269Z,12.37
2019-04-18T03:36:01.903Z,22.50
2019-04-18T03:38:30.513Z,11.70
2019-04-18T03:40:59.120Z,14.73
2019-04-18T03:43:27.818Z,16.63
2019-04-18T03:46:00.947Z,16.20
2019-04-18T03:48:29.557Z,10.97
2019-04-18T03:50:58.166Z,14.37
2019-04-18T03:53:29.820Z,20.87
2019-04-18T03:55:57.208Z,13.70
2019-04-18T03:58:25.694Z,13.33
2019-04-18T04:00:58.027Z,15.20
2019-04-18T04:03:24.982Z,12.43
2019-04-18T04:06:04.483Z,16.17
2019-04-18T04:08:23.936Z,20.57
2019-04-18T04:10:52.642Z,15.50
2019-04-18T04:13:23.110Z,12.47
2019-04-18T04:15:51.720Z,14.60
2019-04-18T04:18:21.977Z,19.70
2019-04-18T04:20:51.364Z,17.73
2019-04-18T04:23:22.707Z,18.73
2019-04-18T04:25:52.794Z,15.10
2019-04-18T04:28:23.918Z,18.73
2019-04-18T04:30:53.529Z,15.30
2019-04-18T04:33:23.629Z,14.63
2019-04-18T04:36:01.055Z,11.80
2019-04-18T04:38:25.381Z,15.97
2019-04-18T04:40:53.929Z,16.77
2019-04-18T04:43:22.506Z,14.30
2019-04-18T04:45:51.059Z,12.63
2019-04-18T04:48:23.467Z,14.33
2019-04-18T04:51:00.607Z,20.83
2019-04-18T04:53:32.181Z,16.77
2019-04-18T04:56:18.852Z,16.13
2019-04-18T04:59:01.296Z,17.73
2019-04-18T05:01:34.440Z,19.43
2019-04-18T05:04:03.645Z,15.10
2019-04-18T05:06:36.477Z,15.70
2019-04-18T05:09:10.943Z,19.87
2019-04-18T05:11:39.941Z,16.03
2019-04-18T05:14:08.944Z,24.10
2019-04-18T05:16:53.707Z,19.10
2019-04-18T05:19:27.483Z,14.10
2019-04-18T05:21:56.288Z,16.33
2019-04-18T05:24:26.279Z,18.40
2019-04-18T05:26:55.579Z,18.93
2019-04-18T05:29:24.504Z,23.47
2019-04-18T05:31:53.932Z,19.20
2019-04-18T05:34:23.623Z,20.37
2019-04-18T05:36:56.624Z,22.30
2019-04-18T05:39:30.265Z,18.03
2019-04-18T05:41:56.998Z,19.50
2019-04-18T05:44:28.332Z,15.27
2019-04-18T05:47:00.944Z,16.97
2019-04-18T05:49:35.738Z,15.80
2019-04-18T05:52:09.889Z,17.23
2019-04-18T05:54:47.415Z,20.57
2019-04-18T05:57:16.365Z,21.13
2019-04-18T05:59:54.402Z,19.87
2019-04-18T06:05:35.007Z,16.23
2019-04-18T06:08:09.556Z,15.80
2019-04-18T06:10:37.679Z,19.20
2019-04-18T06:13:06.775Z,15.50
2019-04-18T06:15:56.466Z,16.90
2019-04-18T06:18:24.687Z,14.20
2019-04-18T06:20:53.578Z,19.67
2019-04-18T06:23:26.997Z,19.07
2019-04-18T06:25:58.417Z,17.03
2019-04-18T06:28:44.502Z,14.70
2019-04-18T06:31:17.484Z,22.30
2019-04-18T06:33:50.954Z,19.33
2019-04-18T06:36:23.238Z,15.43
2019-04-18T06:38:52.767Z,16.53
2019-04-18T06:41:22.957Z,13.60
2019-04-18T06:43:57.405Z,17.97
2019-04-18T06:46:25.421Z,14.97
2019-04-18T06:48:54.038Z,16.20
2019-04-18T06:51:22.614Z,18.93
2019-04-18T06:53:52.328Z,15.93
2019-04-18T06:56:22.980Z,14.93
2019-04-18T06:58:54.514Z,27.20
2019-04-18T07:01:23.079Z,22.43
2019-04-18T07:03:55.817Z,19.03
2019-04-18T07:06:32.820Z,14.83
2019-04-18T07:09:02.069Z,16.20
2019-04-18T07:11:35.680Z,27.57
2019-04-18T07:14:06.984Z,14.47
2019-04-18T07:16:34.614Z,17.43
2019-04-18T07:19:04.868Z,17.40
2019-04-18T07:21:37.042Z,19.60
2019-04-18T07:24:05.473Z,20.13
2019-04-18T07:26:34.027Z,22.40
2019-04-18T07:29:03.017Z,16.47
2019-04-18T07:31:32.273Z,23.43
2019-04-18T07:34:01.150Z,17.60
2019-04-18T07:36:29.754Z,20.03
2019-04-18T07:39:00.938Z,20.07
2019-04-18T07:41:28.663Z,18.40
2019-04-18T07:43:57.226Z,13.70
2019-04-18T07:46:29.343Z,23.70
2019-04-18T07:48:56.719Z,16.70
2019-04-18T07:51:25.365Z,17.53
2019-04-18T07:53:55.641Z,18.03
2019-04-18T07:56:24.371Z,19.13
2019-04-18T07:59:05.705Z,16.37
2019-04-18T08:01:27.860Z,16.63
2019-04-18T08:04:10.736Z,15.80
2019-04-18T08:06:24.970Z,17.00
2019-04-18T08:08:53.579Z,14.97
2019-04-18T08:11:25.378Z,21.43
2019-04-18T08:13:53.940Z,24.83
2019-04-18T08:16:22.932Z,21.40
2019-04-18T08:18:54.630Z,16.43
2019-04-18T08:21:23.212Z,14.77
2019-04-18T08:23:52.135Z,19.30
2019-04-18T08:26:25.100Z,14.40
2019-04-18T08:28:53.845Z,15.00
2019-04-18T08:31:22.425Z,22.97
2019-04-18T08:33:54.535Z,15.80
2019-04-18T08:36:33.156Z,14.83
2019-04-18T08:39:04.938Z,15.13
2019-04-18T08:41:38.201Z,13.63
2019-04-18T08:44:09.081Z,12.63
2019-04-18T08:46:39.376Z,15.70
2019-04-18T08:49:09.909Z,17.87
2019-04-18T08:51:56.624Z,14.87
2019-04-18T08:54:26.879Z,10.63
2019-04-18T08:56:57.135Z,10.97
2019-04-18T08:59:40.802Z,22.57
2019-04-18T09:02:11.420Z,12.57
2019-04-18T09:04:44.035Z,14.70
2019-04-18T09:07:11.064Z,12.37
2019-04-18T09:09:41.171Z,15.37
2019-04-18T09:12:11.175Z,10.73
2019-04-18T09:14:41.773Z,16.47
2019-04-18T09:17:10.738Z,21.40
2019-04-18T09:19:40.886Z,11.60
2019-04-18T09:22:10.572Z,12.40
2019-04-18T09:24:40.372Z,9.10
2019-04-18T09:27:09.983Z,11.17
2019-04-18T09:29:53.126Z,7.47
2019-04-18T09:32:09.821Z,9.60
2019-04-18T09:34:38.332Z,11.33
2019-04-18T09:37:21.822Z,13.20
2019-04-18T09:39:52.127Z,12.60
2019-04-18T09:42:21.016Z,14.13
2019-04-18T09:44:53.836Z,9.67
2019-04-18T09:47:25.424Z,9.10
2019-04-18T09:49:53.983Z,15.03
2019-04-18T09:52:22.585Z,7.77
2019-04-18T09:54:51.129Z,8.00
2019-04-18T09:57:22.312Z,9.07
2019-04-18T10:00:09.099Z,8.73
2019-04-18T10:02:27.976Z,9.80
2019-04-18T10:04:54.732Z,8.20
2019-04-18T10:07:23.339Z,17.93
2019-04-18T10:15:58.872Z,6.03
2019-04-18T10:18:25.122Z,7.07
2019-04-18T10:20:55.443Z,7.90
2019-04-18T10:23:27.306Z,7.07
2019-04-18T10:25:59.022Z,5.37
2019-04-18T10:28:27.591Z,9.33
2019-04-18T10:31:03.426Z,6.37
2019-04-18T10:36:13.359Z,11.20
2019-04-18T10:38:42.010Z,5.70
2019-04-18T10:41:10.573Z,9.43
2019-04-18T10:43:39.151Z,8.53
2019-04-18T10:46:09.885Z,9.50
2019-04-18T10:48:37.994Z,6.90
2019-04-18T10:51:06.620Z,12.97
2019-04-18T10:53:35.280Z,9.30
2019-04-18T10:56:04.005Z,8.40
2019-04-18T10:58:32.564Z,21.00
2019-04-18T11:01:01.236Z,12.77
2019-04-18T11:03:29.812Z,7.17
2019-04-18T11:05:58.360Z,8.53
2019-04-18T11:08:26.922Z,8.10
2019-04-18T11:10:55.572Z,5.90
2019-04-18T11:13:24.197Z,8.50
2019-04-18T11:15:52.770Z,6.60
2019-04-18T11:18:22.828Z,8.63
2019-04-18T11:20:52.908Z,6.83
2019-04-18T11:23:23.048Z,11.03
2019-04-18T11:25:55.595Z,8.53
2019-04-18T11:28:24.978Z,7.80
2019-04-18T11:30:59.410Z,7.80
2019-04-18T11:33:24.365Z,7.40
2019-04-18T11:35:53.316Z,7.63
2019-04-18T11:38:23.578Z,14.30
2019-04-18T11:40:55.375Z,8.00
2019-04-18T11:43:23.984Z,6.70
2019-04-18T11:45:53.005Z,9.60
2019-04-18T11:48:24.608Z,8.77
2019-04-18T11:50:53.545Z,15.60
2019-04-18T11:53:24.775Z,9.70
2019-04-18T11:55:53.347Z,7.23
2019-04-18T11:58:23.496Z,11.43
2019-04-18T12:01:17.736Z,13.33
2019-04-18T12:03:51.829Z,7.30
2019-04-18T12:06:22.047Z,11.10
2019-04-18T12:08:50.645Z,7.40
2019-04-18T12:11:19.224Z,8.70
2019-04-18T12:13:47.775Z,8.30
2019-04-18T12:19:26.060Z,8.00
2019-04-18T12:21:54.637Z,7.00
2019-04-18T12:24:23.539Z,6.83
2019-04-18T12:26:53.664Z,10.47
2019-04-18T12:29:24.872Z,7.07
2019-04-18T12:31:53.667Z,11.40
2019-04-18T12:34:25.587Z,9.17
2019-04-18T12:36:54.288Z,23.27
2019-04-18T12:39:22.842Z,8.23
2019-04-18T12:41:52.928Z,5.90
2019-04-18T12:44:24.398Z,10.00
2019-04-18T12:46:53.116Z,6.47
2019-04-18T12:49:24.641Z,6.90
2019-04-18T12:52:08.645Z,9.10
2019-04-18T12:54:23.604Z,7.43
2019-04-18T12:56:55.067Z,7.27
2019-04-18T12:59:23.621Z,7.00
2019-04-18T13:01:54.908Z,15.50
2019-04-18T13:04:23.860Z,11.43
2019-04-18T13:06:52.520Z,9.43
2019-04-18T13:09:22.715Z,9.47
2019-04-18T13:12:12.267Z,8.30
2019-04-18T13:17:54.620Z,6.50
2019-04-18T13:20:23.243Z,10.93
2019-04-18T13:22:51.885Z,23.23
2019-04-18T13:25:20.835Z,7.63
2019-04-18T13:27:49.762Z,11.40
2019-04-18T13:30:22.165Z,6.33
2019-04-18T13:32:53.734Z,6.43
2019-04-18T13:35:25.860Z,7.70
2019-04-18T13:37:54.571Z,13.90
2019-04-18T13:40:23.757Z,7.73
2019-04-18T13:42:55.362Z,17.33
2019-04-18T13:45:24.092Z,5.67
2019-04-18T13:47:52.668Z,7.33
2019-04-18T13:50:22.835Z,6.00
2019-04-18T13:52:53.012Z,11.10
2019-04-18T13:55:24.790Z,7.23
2019-04-18T13:57:56.705Z,8.47
2019-04-18T14:00:26.873Z,9.27
2019-04-18T14:02:57.165Z,6.83
2019-04-18T14:05:27.316Z,8.73
2019-04-18T14:07:56.302Z,8.47
2019-04-18T14:10:24.919Z,6.50
2019-04-18T14:12:53.487Z,7.00
2019-04-18T14:15:23.800Z,10.60
2019-04-18T14:17:55.590Z,8.47
2019-04-18T14:20:22.808Z,6.87
2019-04-18T14:22:52.895Z,9.43
2019-04-18T14:25:24.251Z,12.17
2019-04-18T14:27:52.940Z,8.70
2019-04-18T14:30:24.339Z,7.37
2019-04-18T14:32:52.924Z,7.70
2019-04-18T14:35:23.384Z,7.47
2019-04-18T14:37:52.496Z,8.40
2019-04-18T14:40:24.628Z,10.40
2019-04-18T14:42:55.377Z,9.40
2019-04-18T14:45:23.684Z,8.50
2019-04-18T14:48:06.927Z,19.73
2019-04-18T14:50:25.652Z,28.30
2019-04-18T14:52:54.229Z,16.50
2019-04-18T14:55:23.160Z,8.00
2019-04-18T14:57:56.607Z,9.07
2019-04-18T15:00:41.804Z,10.80
2019-04-18T15:02:57.006Z,12.37
2019-04-18T15:05:28.311Z,11.90
2019-04-18T15:07:56.865Z,7.10
2019-04-18T15:10:27.082Z,8.30
2019-04-18T15:12:55.907Z,8.83
2019-04-18T15:15:24.547Z,7.80
2019-04-18T15:17:53.105Z,11.40
2019-04-18T15:20:25.396Z,15.73
2019-04-18T15:22:53.952Z,13.93
2019-04-18T15:25:22.616Z,9.80
2019-04-18T15:27:52.749Z,8.40
2019-04-18T15:30:23.131Z,7.50
2019-04-18T15:33:05.382Z,7.60
2019-04-18T15:35:22.522Z,16.57
2019-04-18T15:37:51.519Z,9.07
2019-04-18T15:40:24.996Z,11.40
2019-04-18T15:42:53.900Z,7.40
2019-04-18T15:45:33.376Z,11.33
2019-04-18T15:48:03.931Z,7.20
2019-04-18T15:50:32.551Z,11.10
2019-04-18T15:53:01.958Z,6.40
2019-04-18T15:55:30.662Z,9.90
2019-04-18T15:57:59.227Z,9.30
2019-04-18T16:00:29.886Z,9.53
2019-04-18T16:02:58.470Z,10.43
2019-04-18T16:05:30.419Z,9.30
2019-04-18T16:07:59.731Z,12.10
2019-04-18T16:10:28.661Z,14.50
2019-04-18T16:12:57.848Z,9.80
2019-04-18T16:15:28.209Z,11.20
2019-04-18T16:17:56.841Z,7.20
2019-04-18T16:20:28.104Z,10.47
2019-04-18T16:22:56.926Z,11.83
2019-04-18T16:25:25.641Z,8.10
2019-04-18T16:27:54.538Z,7.90
2019-04-18T16:30:28.124Z,25.23
2019-04-18T16:32:57.615Z,10.93
2019-04-18T16:35:27.201Z,14.70
2019-04-18T16:37:56.002Z,8.80
2019-04-18T16:40:25.325Z,12.80
2019-04-18T16:42:54.150Z,10.13
2019-04-18T16:45:22.883Z,11.80
2019-04-18T16:47:51.625Z,7.90
2019-04-18T16:50:23.276Z,33.73
2019-04-18T16:52:51.897Z,9.57
2019-04-18T16:55:20.645Z,11.73
2019-04-18T16:57:49.466Z,17.13
2019-04-18T17:00:23.825Z,26.80
2019-04-18T17:02:52.451Z,12.33
2019-04-18T17:05:22.992Z,8.70
2019-04-18T17:07:54.786Z,10.90
2019-04-18T17:10:24.010Z,9.37
2019-04-18T17:12:52.628Z,22.60
2019-04-18T17:15:21.751Z,12.20
2019-04-18T17:17:52.104Z,7.80
2019-04-18T17:20:34.890Z,18.90
2019-04-18T17:23:21.381Z,16.53
2019-04-18T17:25:50.740Z,54.17
2019-04-18T17:28:23.090Z,27.10
2019-04-18T17:30:53.821Z,40.07
2019-04-18T17:33:22.692Z,53.37
2019-04-18T17:36:02.594Z,52.23
2019-04-18T17:38:49.752Z,25.50
2019-04-18T17:41:01.548Z,18.63
2019-04-18T17:43:25.184Z,16.47
2019-04-18T17:46:02.971Z,10.83
2019-04-18T17:48:33.287Z,6.20
2019-04-18T17:51:03.238Z,10.63
2019-04-18T17:53:44.632Z,10.60
2019-04-18T17:56:12.997Z,8.60
2019-04-18T17:58:33.083Z,7.10
2019-04-18T18:01:02.999Z,9.73
2019-04-18T18:03:39.250Z,9.10
2019-04-18T18:06:13.436Z,5.87
2019-04-18T18:08:32.654Z,9.30
2019-04-18T18:11:08.442Z,8.53
2019-04-18T18:13:31.804Z,7.10
2019-04-18T18:16:08.779Z,11.00
2019-04-18T18:18:40.557Z,10.60
2019-04-18T18:21:09.284Z,6.97
2019-04-18T18:23:38.680Z,12.07
2019-04-18T18:26:12.573Z,12.73
2019-04-18T18:28:38.350Z,11.37
2019-04-18T18:31:12.998Z,9.93
2019-04-18T18:33:39.653Z,9.47
2019-04-18T18:36:19.640Z,10.53
2019-04-18T18:38:41.149Z,8.97
2019-04-18T18:41:12.632Z,10.17
2019-04-18T18:43:40.334Z,11.50
2019-04-18T18:46:09.237Z,11.90
2019-04-18T18:48:44.890Z,9.67
2019-04-18T18:51:09.979Z,11.60
2019-04-18T18:53:39.516Z,9.87
2019-04-18T18:56:14.354Z,9.50
2019-04-18T18:58:38.565Z,7.67
2019-04-18T19:01:11.940Z,9.67
2019-04-18T19:03:37.945Z,8.13
2019-04-18T19:06:15.265Z,8.27
2019-04-18T19:11:26.865Z,11.10
2019-04-18T19:13:55.499Z,11.63
2019-04-18T19:16:25.928Z,11.63
2019-04-18T19:18:38.966Z,9.60
2019-04-18T19:21:08.366Z,9.97
2019-04-18T19:23:37.944Z,7.57
2019-04-18T19:26:09.887Z,13.30
2019-04-18T19:28:51.259Z,8.13
2019-04-18T19:31:13.584Z,9.20
2019-04-18T19:33:39.989Z,10.60
2019-04-18T19:36:32.436Z,14.20
2019-04-18T19:38:57.952Z,15.53
2019-04-18T19:41:21.328Z,14.90
2019-04-18T19:43:42.101Z,11.33
2019-04-18T19:46:11.011Z,12.93
2019-04-18T19:48:40.091Z,11.33
2019-04-18T19:51:09.721Z,11.63
2019-04-18T19:53:45.824Z,21.23
2019-04-18T19:56:13.314Z,12.10
2019-04-18T19:58:39.374Z,18.23
2019-04-18T20:01:08.785Z,16.20
2019-04-18T20:03:38.220Z,11.57
2019-04-18T20:06:17.767Z,10.57
2019-04-18T20:08:51.655Z,13.17
2019-04-18T20:11:22.283Z,12.13
2019-04-18T20:13:43.262Z,10.10
2019-04-18T20:16:09.663Z,9.70
2019-04-18T20:18:39.234Z,11.40
2019-04-18T20:21:07.999Z,13.30
2019-04-18T20:23:36.919Z,13.00
2019-04-18T20:26:05.757Z,14.67
2019-04-18T20:28:40.331Z,14.40
2019-04-18T20:31:07.263Z,15.90
2019-04-18T20:33:36.334Z,13.37
2019-04-18T20:36:30.727Z,11.90
2019-04-18T20:39:04.267Z,28.97
2019-04-18T20:41:33.590Z,9.20
2019-04-18T20:43:57.525Z,12.83
2019-04-18T20:49:01.103Z,12.43
2019-04-18T20:51:12.946Z,16.03
2019-04-18T20:54:00.891Z,10.97
2019-04-18T20:56:12.411Z,18.57
2019-04-18T20:58:40.067Z,33.13
2019-04-18T21:01:09.021Z,100.80
2019-04-18T21:03:40.490Z,127.83
2019-04-18T21:06:13.234Z,81.70
2019-04-18T21:08:48.467Z,69.27
2019-04-18T21:11:08.972Z,35.23
2019-04-18T21:13:37.582Z,25.13
2019-04-18T21:16:09.312Z,21.33
2019-04-18T21:18:38.508Z,14.00
2019-04-18T21:21:06.942Z,14.67
2019-04-18T21:23:36.934Z,13.97
2019-04-18T21:26:15.001Z,13.43
2019-04-18T21:28:41.011Z,16.57
2019-04-18T21:31:10.642Z,13.00
2019-04-18T21:33:41.086Z,15.20
2019-04-18T21:36:15.012Z,16.03
2019-04-18T21:38:49.822Z,18.23
2019-04-18T21:41:11.894Z,11.90
2019-04-18T21:43:40.965Z,16.77
2019-04-18T21:46:11.086Z,13.07
2019-04-18T21:48:49.575Z,10.03
2019-04-18T21:51:13.659Z,10.40
2019-04-18T21:53:40.951Z,14.27
2019-04-18T21:56:11.763Z,11.67
2019-04-18T21:58:52.537Z,14.67
2019-04-18T22:01:14.448Z,12.13
2019-04-18T22:03:48.699Z,18.07
2019-04-18T22:06:15.094Z,12.13
2019-04-18T22:08:44.371Z,12.60
2019-04-18T22:11:15.599Z,15.13
2019-04-18T22:13:44.633Z,15.27
2019-04-18T22:16:13.428Z,15.90
2019-04-18T22:18:42.046Z,14.63
2019-04-18T22:21:13.437Z,16.60
2019-04-18T22:23:44.048Z,15.33
2019-04-18T22:26:12.605Z,14.57
2019-04-18T22:28:44.984Z,14.00
2019-04-18T22:31:12.835Z,12.20
2019-04-18T22:33:45.011Z,18.73
2019-04-18T22:36:19.106Z,15.03
2019-04-18T22:38:46.206Z,15.73
2019-04-18T22:41:13.188Z,10.93
2019-04-18T22:43:42.716Z,11.17
2019-04-18T22:46:13.141Z,13.10
2019-04-18T22:48:43.663Z,15.23
2019-04-18T22:51:13.771Z,14.33
2019-04-18T22:53:49.097Z,12.60
2019-04-18T22:56:15.380Z,12.50
2019-04-18T22:58:51.352Z,11.30
2019-04-18T23:01:18.620Z,12.70
2019-04-18T23:03:45.495Z,14.10
2019-04-18T23:06:14.559Z,12.40
2019-04-18T23:08:55.020Z,10.63
2019-04-18T23:11:15.099Z,11.80
2019-04-18T23:13:45.618Z,11.40
2019-04-18T23:16:17.383Z,13.77
2019-04-18T23:18:44.926Z,14.20
2019-04-18T23:21:15.672Z,10.93
2019-04-18T23:23:51.038Z,14.07
2019-04-18T23:26:18.272Z,15.90
2019-04-18T23:28:48.011Z,12.23
2019-04-18T23:31:19.449Z,15.17
2019-04-18T23:33:56.384Z,10.93
2019-04-18T23:36:18.966Z,13.23
2019-04-18T23:38:48.977Z,14.23
2019-04-18T23:41:20.492Z,12.83
2019-04-18T23:43:48.073Z,15.83
2019-04-18T23:46:21.417Z,12.40
2019-04-18T23:48:48.112Z,11.23
2019-04-18T23:51:17.412Z,12.60
2019-04-18T23:53:50.255Z,15.67
2019-04-18T23:56:18.030Z,13.80
2019-04-18T23:58:51.448Z,12.77
